Latest Weather Observations for Mackay Airport

IDQ60801

Issued at 7:22 pm EST Sunday 24 January 2021 (issued every 10 minutes, with the page automatically refreshed every 10 minutes)

About weather observations | Map of weather stations | Latest weather observations for QLD | Other Formats
Station Details ID: 033045 Name: MACKAY AERO Lat: -21.17 Lon: 149.18 Height: 4.7 m
Data from the previous 72 hours. | See also: Recent months at Mackay Airport
Date/Time
EST
Temp
°C
App
Temp
°C
Dew
Point
°C
Rel
Hum
%
Delta-T
°C
Wind Press
QNH
hPa
Press
MSL
hPa
Rain since
9am
mm
Dir  Spd
km/h
Gust
km/h
Spd
kts
Gust
kts
24/07:00pm 26.0 26.1 20.3 71 3.7 SE 20 26 11 14 1008.9 1008.9 0.0
24/06:30pm 26.2 25.8 21.0 73 3.4 ESE 24 32 13 17 1008.5 1008.5 0.0
24/06:00pm 26.7 27.0 21.5 73 3.5 SE 22 30 12 16 1008.4 1008.4 0.0
24/05:30pm 27.3 26.9 21.6 71 3.8 SE 26 33 14 18 1008.2 1008.2 0.0
24/05:00pm 27.8 27.0 20.9 66 4.6 SE 26 33 14 18 1007.9 1007.9 0.0
24/04:30pm 28.2 27.3 20.7 63 5.0 SE 26 32 14 17 1007.9 1007.9 0.0
24/04:00pm 28.5 27.9 21.3 65 4.8 SE 26 33 14 18 1008.0 1008.0 0.0
24/03:30pm 28.4 28.4 22.4 70 4.1 SE 26 33 14 18 1008.1 1008.1 0.0
24/03:00pm 28.6 28.2 21.6 66 4.7 SE 26 37 14 20 1008.2 1008.2 0.0
24/02:30pm 28.8 28.4 21.6 65 4.8 SE 26 35 14 19 1008.4 1008.4 0.0
24/02:00pm 29.0 28.1 20.7 61 5.5 SE 26 33 14 18 1008.6 1008.6 0.0
24/01:30pm 29.3 28.9 21.0 61 5.5 SE 24 32 13 17 1008.8 1008.8 0.0
24/01:00pm 28.6 27.8 20.9 63 5.1 SE 26 35 14 19 1009.2 1009.2 0.0
24/12:30pm 28.5 27.1 20.5 62 5.3 SE 28 37 15 20 1009.7 1009.7 0.0
24/12:00pm 28.6 27.5 21.1 64 5.0 SE 28 33 15 18 1010.1 1010.1 0.0
24/11:30am 29.0 28.6 20.2 59 5.8 SE 22 30 12 16 1010.5 1010.5 0.0
24/11:00am 28.9 28.0 19.8 58 6.0 SE 24 30 13 16 1010.8 1010.8 0.0
24/10:30am 28.4 26.8 19.3 57 5.9 SE 26 32 14 17 1011.1 1011.1 0.0
24/10:00am 28.3 26.6 19.8 60 5.6 SE 28 33 15 18 1011.3 1011.3 0.0
24/09:30am 28.1 27.3 20.1 62 5.2 SE 24 32 13 17 1011.5 1011.5 0.0
24/09:00am 27.4 27.4 19.7 63 5.0 SE 19 24 10 13 1011.4 1011.4 0.0
24/08:30am 26.9 27.2 20.5 68 4.2 SSE 19 24 10 13 1011.3 1011.3 0.0
24/08:00am 26.9 28.6 21.0 70 3.9 SSE 13 17 7 9 1011.3 1011.3 0.0
24/07:30am 25.4 26.7 20.9 76 3.0 S 15 17 8 9 1011.3 1011.3 0.0
24/07:00am 24.1 25.5 20.4 80 2.4 SSW 13 15 7 8 1011.2 1011.2 0.0
24/06:30am 23.0 24.8 20.3 85 1.7 SSW 11 15 6 8 1010.9 1010.9 0.0
24/06:00am 22.7 23.9 19.9 84 1.8 SSW 13 17 7 9 1010.5 1010.5 0.0
24/05:30am 24.8 24.7 19.6 73 3.3 ESE 19 24 10 13 1010.2 1010.2 0.0
24/05:00am 25.1 24.6 19.2 70 3.8 ESE 20 24 11 13 1010.0 1010.0 0.0
24/04:30am 24.9 24.9 20.2 75 3.1 ESE 20 28 11 15 1009.8 1009.8 0.0
24/04:00am 25.0 24.9 19.6 72 3.5 ESE 19 22 10 12 1009.8 1009.8 0.0
24/03:30am 25.1 25.1 19.7 72 3.5 ESE 19 24 10 13 1009.8 1009.8 0.0
24/03:00am 25.3 25.4 20.3 74 3.3 ESE 20 26 11 14 1010.0 1010.0 0.0
24/02:30am 25.4 25.8 20.6 75 3.1 ESE 19 28 10 15 1010.1 1010.1 0.0
24/02:00am 25.5 25.9 20.7 75 3.1 ESE 19 24 10 13 1010.5 1010.5 0.0
24/01:30am 25.0 25.4 19.8 73 3.4 ESE 17 24 9 13 1010.7 1010.7 0.0
24/01:00am 25.3 25.6 20.3 74 3.3 ESE 19 24 10 13 1011.2 1011.2 0.0
24/12:30am 25.3 25.5 20.1 73 3.4 ESE 19 24 10 13 1011.5 1011.5 0.0
24/12:00am 25.1 25.4 19.7 72 3.5 ESE 17 26 9 14 1011.8 1011.8 0.0
 
Date/Time
EST
Temp
°C
App
Temp
°C
Dew
Point
°C
Rel
Hum
%
Delta-T
°C
Wind Press
QNH
hPa
Press
MSL
hPa
Rain since
9am
mm
Dir  Spd
km/h
Gust
km/h
Spd
kts
Gust
kts
23/11:30pm 25.4 25.2 19.8 71 3.6 ESE 20 26 11 14 1012.0 1012.0 0.0
23/11:00pm 25.6 25.1 19.9 70 3.7 ESE 22 30 12 16 1012.0 1012.0 0.0
23/10:30pm 25.8 25.9 20.4 72 3.5 ESE 20 28 11 15 1012.2 1012.2 0.0
23/10:00pm 25.9 25.3 19.8 69 4.0 E 22 30 12 16 1012.2 1012.2 0.0
23/09:30pm 26.1 25.6 20.7 72 3.5 E 24 30 13 16 1012.0 1012.0 0.0
23/09:00pm 26.1 26.1 20.9 73 3.4 E 22 30 12 16 1011.9 1011.9 0.0
23/08:30pm 26.0 25.7 20.3 71 3.7 E 22 30 12 16 1011.7 1011.7 0.0
23/08:00pm 26.2 25.9 20.3 70 3.9 E 22 32 12 17 1011.5 1011.5 0.0
23/07:30pm 26.3 25.7 20.4 70 3.9 ESE 24 32 13 17 1011.3 1011.3 0.0
23/07:00pm 26.5 26.1 21.0 72 3.6 ESE 24 30 13 16 1011.0 1011.0 0.0
23/06:30pm 26.8 26.2 20.6 69 4.1 ESE 24 32 13 17 1010.6 1010.6 0.0
23/06:00pm 27.2 27.3 21.2 69 4.0 E 22 30 12 16 1010.4 1010.4 0.0
23/05:30pm 27.6 27.5 21.4 69 4.1 E 24 33 13 18 1009.9 1009.9 0.0
23/05:00pm 27.2 26.1 20.3 66 4.5 E 26 35 14 19 1009.8 1009.8 0.0
23/04:30pm 28.0 28.2 22.0 70 4.0 E 24 32 13 17 1009.6 1009.6 0.0
23/04:00pm 28.6 28.3 21.9 67 4.5 ESE 26 33 14 18 1009.7 1009.7 0.0
23/03:30pm 29.0 28.5 22.2 66 4.6 E 28 33 15 18 1009.8 1009.8 0.0
23/03:00pm 29.1 28.1 21.3 62 5.2 ESE 28 35 15 19 1010.0 1010.0 0.0
23/02:30pm 29.3 28.1 21.5 63 5.2 SE 30 39 16 21 1010.2 1010.2 0.0
23/02:00pm 29.3 28.3 22.0 64 4.9 ESE 30 39 16 21 1010.1 1010.1 0.0
23/01:30pm 29.2 27.5 21.4 63 5.2 SE 32 41 17 22 1010.3 1010.3 0.0
23/01:00pm 29.0 27.5 21.7 64 4.9 SE 32 39 17 21 1010.3 1010.3 0.0
23/12:30pm 29.2 28.6 22.7 68 4.4 SE 30 37 16 20 1010.4 1010.4 0.0
23/12:00pm 29.1 28.8 21.8 64 4.9 SE 26 35 14 19 1010.7 1010.7 0.0
23/11:30am 28.6 28.4 22.1 68 4.4 SE 26 32 14 17 1010.9 1010.9 0.0
23/11:00am 28.9 28.5 21.7 65 4.8 SE 26 33 14 18 1011.2 1011.2 0.0
23/10:30am 28.9 28.5 20.9 62 5.3 SE 24 30 13 16 1011.5 1011.5 0.0
23/10:00am 28.2 27.4 20.0 61 5.4 SE 24 28 13 15 1011.6 1011.6 0.0
23/09:30am 27.8 27.8 20.9 66 4.6 SE 22 28 12 15 1011.6 1011.6 0.0
23/09:00am 26.5 27.4 20.8 71 3.8 SSE 17 24 9 13 1011.3 1011.3 0.0
23/08:30am 25.7 27.4 21.6 78 2.7 S 15 20 8 11 1011.3 1011.3 0.0
23/08:00am 24.3 26.7 21.6 85 1.8 SSW 11 15 6 8 1011.2 1011.2 0.0
23/07:30am 23.5 26.7 21.6 89 1.3 SSW 7 11 4 6 1011.0 1011.0 0.0
23/07:00am 22.6 25.4 20.9 90 1.1 WSW 7 9 4 5 1011.0 1011.0 0.0
23/06:30am 22.0 23.9 20.6 92 0.9 SW 11 13 6 7 1010.8 1010.8 0.0
23/06:00am 21.6 23.7 20.1 91 1.0 WSW 9 11 5 6 1010.4 1010.4 0.0
23/05:30am 21.5 23.5 20.0 91 1.0 WSW 9 11 5 6 1010.2 1010.2 0.0
23/05:00am 21.7 24.1 20.0 90 1.1 W 7 7 4 4 1009.9 1009.9 0.0
23/04:30am 21.6 23.6 19.9 90 1.1 WSW 9 11 5 6 1009.4 1009.4 0.0
23/04:00am 21.7 24.1 20.0 90 1.1 W 7 9 4 5 1009.5 1009.5 0.0
23/03:30am 21.7 23.8 20.2 91 1.0 WSW 9 11 5 6 1009.4 1009.4 0.0
23/03:00am 21.5 23.5 20.0 91 1.0 WSW 9 11 5 6 1009.6 1009.6 0.0
23/02:30am 21.6 23.8 19.7 89 1.2 WSW 7 9 4 5 1009.6 1009.6 0.0
23/02:00am 21.9 24.3 20.0 89 1.2 W 7 9 4 5 1010.0 1010.0 0.0
23/01:30am 22.0 24.1 20.1 89 1.2 WSW 9 13 5 7 1010.5 1010.5 0.0
23/01:00am 22.1 24.5 20.0 88 1.3 W 7 9 4 5 1010.4 1010.4 0.0
23/12:30am 21.8 23.8 19.9 89 1.2 WSW 9 11 5 6 1011.1 1011.1 0.0
23/12:00am 22.2 24.3 20.1 88 1.4 W 9 11 5 6 1011.3 1011.3 0.0
 
Date/Time
EST
Temp
°C
App
Temp
°C
Dew
Point
°C
Rel
Hum
%
Delta-T
°C
Wind Press
QNH
hPa
Press
MSL
hPa
Rain since
9am
mm
Dir  Spd
km/h
Gust
km/h
Spd
kts
Gust
kts
22/11:30pm 22.5 24.6 20.2 87 1.5 SW 9 13 5 7 1011.6 1011.6 0.0
22/11:00pm 22.9 25.0 20.2 85 1.7 SW 9 13 5 7 1012.0 1012.0 0.0
22/10:30pm 23.8 26.3 20.3 81 2.3 SSW 7 9 4 5 1012.0 1012.0 0.0
22/10:00pm 25.1 26.9 20.4 75 3.1 SE 11 15 6 8 1012.0 1012.0 0.0
22/09:30pm 25.1 26.3 19.9 73 3.4 ESE 13 17 7 9 1011.8 1011.8 0.0
22/09:00pm 25.2 26.2 20.2 74 3.3 SE 15 19 8 10 1011.7 1011.7 0.0
22/08:30pm 25.4 26.3 20.0 72 3.5 ESE 15 20 8 11 1011.3 1011.3 0.0
22/08:00pm 25.6 26.3 20.4 73 3.4 ESE 17 20 9 11 1011.1 1011.1 0.0
22/07:30pm 25.6 26.4 19.9 70 3.7 ESE 15 20 8 11 1011.0 1011.0 0.0
22/07:00pm 25.7 26.1 19.8 70 3.8 ESE 17 20 9 11 1010.8 1010.8 0.0
22/06:30pm 26.1 26.7 20.2 70 3.8 ESE 17 22 9 12 1010.6 1010.6 0.0
22/06:00pm 26.7 26.4 19.6 65 4.6 ESE 20 24 11 13 1010.3 1010.3 0.0
22/05:30pm 27.4 27.2 19.7 63 5.0 ESE 20 26 11 14 1010.0 1010.0 0.0
22/05:00pm 27.5 26.8 19.6 62 5.1 ESE 22 28 12 15 1009.9 1009.9 0.0
22/04:30pm 28.0 27.2 20.0 61 5.2 SE 24 28 13 15 1010.1 1010.1 0.0
22/04:00pm 28.0 26.8 20.0 61 5.2 SE 26 32 14 17 1010.0 1010.0 0.0
22/03:30pm 28.2 27.2 20.5 63 5.1 SE 26 32 14 17 1010.2 1010.2 0.0
22/03:00pm 28.3 27.1 20.1 61 5.4 SE 26 33 14 18 1010.3 1010.3 0.0
22/02:30pm 28.4 27.3 20.2 61 5.4 SE 26 32 14 17 1010.5 1010.5 0.0
22/02:00pm 28.3 27.0 20.6 63 5.1 SE 28 35 15 19 1010.7 1010.7 0.0
22/01:30pm 28.7 27.7 20.4 60 5.5 SE 26 33 14 18 1010.8 1010.8 0.0
22/01:00pm 28.6 27.4 20.9 63 5.1 SE 28 33 15 18 1011.0 1011.0 0.0
22/12:30pm 28.5 27.7 20.0 60 5.6 SE 24 35 13 19 1011.3 1011.3 0.0
22/12:00pm 28.5 27.7 20.0 60 5.6 SE 24 33 13 18 1011.7 1011.7 0.0
22/11:30am 28.4 27.0 18.8 56 6.2 SE 24 33 13 18 1011.9 1011.9 0.0
22/11:00am 28.3 27.0 19.8 60 5.5 SE 26 32 14 17 1012.4 1012.4 0.0
22/10:30am 27.9 26.5 19.7 61 5.3 SE 26 32 14 17 1012.6 1012.6 0.0
22/10:00am 28.1 26.6 18.5 56 6.1 SE 24 32 13 17 1012.7 1012.7 0.0
22/09:30am 27.3 25.6 18.9 60 5.4 SE 26 33 14 18 1012.7 1012.7 0.0
22/09:00am 27.6 26.1 18.6 58 5.8 SE 24 30 13 16 1012.8 1012.8 3.4
22/08:30am 27.3 25.7 18.3 58 5.7 SE 24 32 13 17 1012.7 1012.7 3.4
22/08:00am 26.9 25.8 18.7 60 5.2 SE 22 32 12 17 1012.5 1012.5 3.4
22/07:30am 26.7 25.2 18.6 61 5.2 SE 24 32 13 17 1012.3 1012.3 3.4
22/07:00am 25.9 23.9 18.3 63 4.8 SE 26 35 14 19 1012.1 1012.1 3.4
22/06:30am 25.1 23.4 18.1 65 4.4 SE 24 33 13 18 1011.9 1011.9 3.4
22/06:00am 24.6 22.9 17.1 63 4.6 SE 22 30 12 16 1011.7 1011.7 3.4
22/05:30am 24.6 22.5 18.1 67 4.1 SE 26 33 14 18 1011.3 1011.3 3.4
22/05:00am 24.8 22.7 18.0 66 4.3 SE 26 35 14 19 1011.1 1011.1 3.4
22/04:30am 24.8 23.3 18.5 68 4.0 ESE 24 30 13 16 1010.8 1010.8 3.4
22/04:00am 24.9 23.0 18.6 68 4.0 ESE 26 32 14 17 1010.7 1010.7 3.4
22/03:30am 24.7 23.8 19.8 74 3.2 ESE 24 32 13 17 1010.6 1010.6 3.4
22/03:00am 24.8 23.8 19.6 73 3.4 SE 24 32 13 17 1010.6 1010.6 3.4
22/02:30am 24.7 24.1 18.9 70 3.7 SE 20 26 11 14 1011.1 1011.1 3.4
22/02:00am 24.7 23.6 18.6 69 3.9 SE 22 28 12 15 1011.0 1011.0 3.4
22/01:30am 24.9 23.5 18.8 69 3.9 ESE 24 32 13 17 1011.3 1011.3 3.4
22/01:00am 25.1 24.0 19.5 71 3.6 ESE 24 33 13 18 1011.6 1011.6 3.4
22/12:30am 25.1 23.8 19.0 69 3.9 ESE 24 32 13 17 1012.1 1012.1 3.4
22/12:00am 25.2 24.3 19.1 69 3.9 ESE 22 33 12 18 1012.5 1012.5 3.4
 
Date/Time
EST
Temp
°C
App
Temp
°C
Dew
Point
°C
Rel
Hum
%
Delta-T
°C
Wind Press
QNH
hPa
Press
MSL
hPa
Rain since
9am
mm
Dir  Spd
km/h
Gust
km/h
Spd
kts
Gust
kts
21/11:30pm 25.5 23.8 19.9 71 3.6 ESE 28 35 15 19 1012.7 1012.7 3.4
21/11:00pm 25.6 23.8 19.5 69 3.9 ESE 28 37 15 20 1012.9 1012.9 3.4
21/10:30pm 25.4 24.1 19.8 71 3.6 ESE 26 35 14 19 1013.1 1013.1 3.4
21/10:00pm 25.4 23.8 19.3 69 3.9 ESE 26 37 14 20 1013.1 1013.1 3.4
21/09:30pm 25.3 23.6 19.0 68 4.0 ESE 26 33 14 18 1013.0 1013.0 3.4
21/09:00pm 25.6 23.4 19.5 69 3.9 ESE 30 37 16 20 1013.1 1013.1 3.4
21/08:30pm 25.6 24.2 19.7 70 3.8 ESE 26 35 14 19 1012.8 1012.8 3.4
21/08:00pm 25.7 23.5 19.6 69 3.9 ESE 30 39 16 21 1012.7 1012.7 3.4
21/07:30pm 25.8 23.8 19.9 70 3.8 ESE 30 39 16 21 1012.4 1012.4 3.4

Other formats

Comma delimited format used in spreadsheet applications
http://www.bom.gov.au/fwo/IDQ60801/IDQ60801.95367.axf

JavaScript Object Notation format (JSON) in row-major order
http://www.bom.gov.au/fwo/IDQ60801/IDQ60801.95367.json

Data quality

Most of these data are generated automatically and are frequently updated. Quality checks on data are not normally performed. It is possible for incorrect values to appear. Refer to information at About Latest Weather Observations and please check the disclaimer before using these data.